CLL weather

Easterwood Field
College Station, Texas, United States

Public forecast

Using degrees Fahrenheit for public forecast. Weather courtesy of forecast.io.

METAR (pilot weather report)

Retrieved 2019/06/19 15:22 UTC (0 seconds ago):

KCLL 191522Z 21008KT 10SM SCT022 29/24 A2989

TAF (pilot weather forecast)

Retrieved 2019/06/19 12:30 UTC (3 hours ago):

TAF KCLL 191129Z 1912/2012 21006KT P6SM BKN015 FM191600 20011G20KT P6SM SCT035 SCT250 FM200100 18010KT P6SM SCT025 FM200800 18008KT P6SM BKN015